createdAt,value
2023-03-04T00:00:06.022Z,957.66
2023-03-04T00:10:09.027Z,957.74
2023-03-04T00:15:18.977Z,957.74
2023-03-04T00:20:12.675Z,957.74
2023-03-04T00:25:14.800Z,957.8
2023-03-04T00:30:16.893Z,957.78
2023-03-04T00:35:18.788Z,957.84
2023-03-04T00:40:20.048Z,957.84
2023-03-04T00:45:21.432Z,957.83
2023-03-04T00:50:23.229Z,957.86
2023-03-04T00:55:25.172Z,957.82
2023-03-04T01:00:26.704Z,957.79
2023-03-04T01:05:28.599Z,957.76
2023-03-04T01:10:29.896Z,957.74
2023-03-04T01:15:31.803Z,957.65
2023-03-04T01:20:33.264Z,957.63
2023-03-04T01:25:35.269Z,957.61
2023-03-04T01:30:37.005Z,957.55
2023-03-04T01:35:39.071Z,957.56
2023-03-04T01:40:40.435Z,957.49
2023-03-04T01:45:41.807Z,957.47
2023-03-04T01:50:43.451Z,957.43
2023-03-04T01:55:45.347Z,957.41
2023-03-04T02:00:46.591Z,957.34
2023-03-04T02:05:47.930Z,957.22
2023-03-04T02:10:49.572Z,957.17
2023-03-04T02:15:51.149Z,957.14
2023-03-04T02:20:53.329Z,957.12
2023-03-04T02:25:55.323Z,957.02
2023-03-04T02:30:57.085Z,957
2023-03-04T02:35:58.564Z,957
2023-03-04T02:41:00.380Z,956.99
2023-03-04T02:46:01.979Z,956.97
2023-03-04T02:51:03.874Z,956.98
2023-03-04T02:56:05.747Z,956.99
2023-03-04T03:01:06.941Z,956.97
2023-03-04T03:06:08.293Z,957.01
2023-03-04T03:11:10.008Z,957.07
2023-03-04T03:16:12.258Z,957.07
2023-03-04T03:21:14.080Z,957.03
2023-03-04T03:26:15.321Z,957.04
2023-03-04T03:31:16.603Z,957.04
2023-03-04T03:36:18.062Z,956.99
2023-03-04T03:41:19.923Z,957.05
2023-03-04T03:46:21.372Z,957
2023-03-04T03:51:23.558Z,956.98
2023-03-04T03:56:25.471Z,956.94
2023-03-04T04:01:27.150Z,957
2023-03-04T04:06:29.047Z,956.98
2023-03-04T04:11:31.161Z,956.94
2023-03-04T04:16:32.419Z,956.92
2023-03-04T04:21:34.387Z,956.91
2023-03-04T04:26:35.768Z,956.96
2023-03-04T04:31:37.889Z,956.99
2023-03-04T04:36:39.375Z,956.99
2023-03-04T04:41:40.574Z,957
2023-03-04T04:46:42.282Z,957.05
2023-03-04T04:51:43.855Z,957.05
2023-03-04T04:56:45.829Z,957.05
2023-03-04T05:01:47.185Z,957.04
2023-03-04T05:06:48.953Z,957.04
2023-03-04T05:11:50.267Z,957.03
2023-03-04T05:16:52.261Z,957.04
2023-03-04T05:21:54.192Z,957
2023-03-04T05:26:55.665Z,957.08
2023-03-04T05:31:57.795Z,957.06
2023-03-04T05:36:59.464Z,957.09
2023-03-04T05:42:01.257Z,957.11
2023-03-04T05:47:02.782Z,957.08
2023-03-04T05:52:04.794Z,957.1
2023-03-04T05:57:06.457Z,957.14
2023-03-04T06:02:07.740Z,957.18
2023-03-04T06:07:09.212Z,957.25
2023-03-04T06:12:10.721Z,957.28
2023-03-04T06:17:12.415Z,957.33
2023-03-04T06:22:13.725Z,957.35
2023-03-04T06:27:14.943Z,957.36
2023-03-04T06:32:16.347Z,957.42
2023-03-04T06:37:17.651Z,957.46
2023-03-04T06:42:19.202Z,957.51
2023-03-04T06:47:20.517Z,957.56
2023-03-04T06:52:22.229Z,957.58
2023-03-04T06:57:24.248Z,957.49
2023-03-04T07:02:26.163Z,957.53
2023-03-04T07:07:27.872Z,957.47
2023-03-04T07:12:29.505Z,957.56
2023-03-04T07:17:31.634Z,957.53
2023-03-04T07:22:33.685Z,957.58
2023-03-04T07:27:35.103Z,957.59
2023-03-04T07:32:36.956Z,957.6
2023-03-04T07:37:40.496Z,957.7
2023-03-04T07:42:39.710Z,957.78
2023-03-04T07:47:41.738Z,957.73
2023-03-04T07:52:43.224Z,957.8
2023-03-04T07:57:44.585Z,957.79
2023-03-04T08:02:46.704Z,957.87
2023-03-04T08:07:48.697Z,957.81
2023-03-04T08:12:50.940Z,957.92
2023-03-04T08:17:52.630Z,957.89
2023-03-04T08:22:54.130Z,957.88
2023-03-04T08:27:55.941Z,957.91
2023-03-04T08:32:57.351Z,957.92
2023-03-04T08:38:01.334Z,957.92
2023-03-04T08:43:11.311Z,957.95
2023-03-04T08:48:03.296Z,957.86
2023-03-04T08:53:04.593Z,957.8
2023-03-04T08:58:06.199Z,957.84
2023-03-04T09:03:07.630Z,957.85
2023-03-04T09:08:09.720Z,957.83
2023-03-04T09:13:11.304Z,957.76
2023-03-04T09:18:12.892Z,957.8
2023-03-04T09:23:14.647Z,957.74
2023-03-04T09:28:16.037Z,957.72
2023-03-04T09:33:17.926Z,957.65
2023-03-04T09:38:19.300Z,957.61
2023-03-04T09:43:21.454Z,957.53
2023-03-04T09:48:23.207Z,957.59
2023-03-04T09:53:25.091Z,957.58
2023-03-04T09:58:26.375Z,957.51
2023-03-04T10:03:28.126Z,957.51
2023-03-04T10:08:30.019Z,957.48
2023-03-04T10:13:31.673Z,957.45
2023-03-04T10:18:33.648Z,957.41
2023-03-04T10:23:35.164Z,957.32
2023-03-04T10:28:37.010Z,957.32
2023-03-04T10:33:38.351Z,957.34
2023-03-04T10:38:39.995Z,957.28
2023-03-04T10:43:41.307Z,957.33
2023-03-04T10:48:43.534Z,957.3
2023-03-04T10:53:45.225Z,957.27
2023-03-04T10:58:46.415Z,957.27
2023-03-04T11:03:48.109Z,957.22
2023-03-04T11:08:50.176Z,957.23
2023-03-04T11:13:51.532Z,957.18
2023-03-04T11:18:52.988Z,957.12
2023-03-04T11:23:54.706Z,957.1
2023-03-04T11:28:56.781Z,957.04
2023-03-04T11:33:58.632Z,957.04
2023-03-04T11:39:00.543Z,956.97
2023-03-04T11:44:02.039Z,956.93
2023-03-04T11:49:04.011Z,956.93
2023-03-04T11:54:05.773Z,956.89
2023-03-04T11:59:07.732Z,956.94
2023-03-04T12:04:09.718Z,956.86
2023-03-04T12:09:11.830Z,956.77
2023-03-04T12:14:13.755Z,956.72
2023-03-04T12:19:16.046Z,956.6
2023-03-04T12:24:17.176Z,956.56
2023-03-04T12:29:19.341Z,956.54
2023-03-04T12:34:20.925Z,956.46
2023-03-04T12:39:22.326Z,956.46
2023-03-04T12:44:23.989Z,956.4
2023-03-04T12:49:25.962Z,956.37
2023-03-04T12:54:27.595Z,956.34
2023-03-04T12:59:29.407Z,956.34
2023-03-04T13:04:30.934Z,956.2
2023-03-04T13:09:32.975Z,956.17
2023-03-04T13:14:34.783Z,956.09
2023-03-04T13:19:36.271Z,956.09
2023-03-04T13:24:38.014Z,956.12
2023-03-04T13:29:39.342Z,956.03
2023-03-04T13:39:43.423Z,955.84
2023-03-04T14:45:03.443Z,955.6
2023-03-04T15:10:12.029Z,955.44
2023-03-04T15:20:15.940Z,955.44
2023-03-04T15:25:17.951Z,955.47
2023-03-04T15:30:18.622Z,955.39
2023-03-04T15:35:20.242Z,955.48
2023-03-04T15:40:21.719Z,955.5
2023-03-04T15:45:23.308Z,955.52
2023-03-04T15:50:25.642Z,955.58
2023-03-04T15:55:28.785Z,955.58
2023-03-04T16:00:28.702Z,955.67
2023-03-04T16:05:32.500Z,955.71
2023-03-04T16:10:32.012Z,955.75
2023-03-04T16:15:34.100Z,955.75
2023-03-04T16:20:41.654Z,955.78
2023-03-04T16:25:43.947Z,955.84
2023-03-04T16:30:45.510Z,955.97
2023-03-04T16:35:47.410Z,956
2023-03-04T16:40:49.008Z,955.97
2023-03-04T16:45:51.178Z,955.94
2023-03-04T16:50:52.875Z,955.97
2023-03-04T16:55:54.960Z,955.99
2023-03-04T17:00:56.794Z,956.09
2023-03-04T17:05:59.884Z,956.24
2023-03-04T17:11:00.633Z,956.29
2023-03-04T17:16:02.253Z,956.38
2023-03-04T17:21:04.495Z,956.45
2023-03-04T17:26:05.975Z,956.52
2023-03-04T17:31:07.604Z,956.59
2023-03-04T17:36:11.653Z,956.69
2023-03-04T17:41:21.515Z,956.73
2023-03-04T17:46:13.542Z,956.75
2023-03-04T17:51:15.557Z,956.82
2023-03-04T17:56:17.175Z,956.92
2023-03-04T18:01:19.327Z,956.9
2023-03-04T18:06:20.395Z,957
2023-03-04T18:11:22.215Z,956.96
2023-03-04T18:16:24.124Z,957.01
2023-03-04T18:21:26.027Z,957.02
2023-03-04T18:26:29.794Z,957.08
2023-03-04T18:31:31.857Z,957.07
2023-03-04T18:36:31.802Z,957.11
2023-03-04T18:41:33.700Z,957.15
2023-03-04T18:46:35.749Z,957.23
2023-03-04T18:51:38.642Z,957.26
2023-03-04T18:56:39.743Z,957.2
2023-03-04T19:01:41.944Z,957.26
2023-03-04T19:06:43.803Z,957.23
2023-03-04T19:11:45.845Z,957.28
2023-03-04T19:16:57.560Z,957.4
2023-03-04T19:21:49.388Z,957.39
2023-03-04T19:26:50.610Z,957.41
2023-03-04T19:31:52.058Z,957.4
2023-03-04T19:36:53.876Z,957.44
2023-03-04T19:41:55.684Z,957.44
2023-03-04T19:46:57.362Z,957.37
2023-03-04T19:51:58.971Z,957.34
2023-03-04T19:57:00.687Z,957.31
2023-03-04T20:02:02.171Z,957.41
2023-03-04T20:07:03.763Z,957.37
2023-03-04T20:12:04.957Z,957.39
2023-03-04T20:17:06.724Z,957.48
2023-03-04T20:22:08.067Z,957.51
2023-03-04T20:27:10.082Z,957.48
2023-03-04T20:32:11.232Z,957.47
2023-03-04T20:37:12.782Z,957.43
2023-03-04T20:42:22.001Z,957.39
2023-03-04T20:47:15.622Z,957.34
2023-03-04T20:52:17.405Z,957.27
2023-03-04T20:57:19.225Z,957.26
2023-03-04T21:02:21.276Z,957.32
2023-03-04T21:07:23.392Z,957.29
2023-03-04T21:12:25.143Z,957.25
2023-03-04T21:17:26.772Z,957.21
2023-03-04T21:22:28.717Z,957.14
2023-03-04T21:27:29.977Z,957.12
2023-03-04T21:32:31.878Z,957.18
2023-03-04T21:37:33.758Z,957.06
2023-03-04T21:42:34.920Z,957.01
2023-03-04T21:47:36.754Z,957.01
2023-03-04T21:52:38.611Z,956.97
2023-03-04T21:57:40.190Z,956.92
2023-03-04T22:02:41.396Z,956.86
2023-03-04T22:07:43.216Z,956.77
2023-03-04T22:12:52.929Z,956.73
2023-03-04T22:17:46.725Z,956.73
2023-03-04T22:22:48.616Z,956.71
2023-03-04T22:27:50.747Z,956.58
2023-03-04T22:32:52.056Z,956.59
2023-03-04T22:37:53.508Z,956.51
2023-03-04T22:42:54.752Z,956.61
2023-03-04T22:47:56.609Z,956.59
2023-03-04T22:52:57.863Z,956.49
2023-03-04T22:57:59.609Z,956.56
2023-03-04T23:13:03.976Z,956.64
2023-03-04T23:18:05.644Z,956.64
2023-03-04T23:23:07.248Z,956.62
2023-03-04T23:28:08.873Z,956.64
2023-03-04T23:33:10.641Z,956.52
2023-03-04T23:38:11.878Z,956.51
2023-03-04T23:43:13.450Z,956.41
2023-03-04T23:48:14.918Z,956.35
2023-03-04T23:53:16.960Z,956.4
2023-03-04T23:58:18.442Z,956.33
